Terminal Aerodrome Forecast
Issued by NWS

Home | Current Version | Previous Version | Text Only | Print | Product List | Glossary On
Versions: 1 2 3 4 5 6 7 8 9 10 11 12 13 14 15 16 17
000
FTUS45 KABQ 311750
TAFLVS
TAF
KLVS 311750Z 3118/0118 04017KT P6SM VCSH SCT070 BKN120
     FM312000 12011KT P6SM VCTS BKN070CB
      TEMPO 3120/3123 VRB20G30KT 5SM -TSRA BKN050CB
     FM312300 05010KT P6SM -SHRA BKN050 OVC100
      TEMPO 3123/0103 4SM RA BKN035
     FM010300 08007KT P6SM VCSH BKN040 BKN070
     FM010800 03006KT 1SM BR OVC009
     FM011600 09005KT P6SM OVC018=

USA.gov is the U.S. government's official web portal to all federal, state and local government web resources and services.